Terminal Aerodrome Forecast
Issued by NWS

Home | Current Version | Previous Version | Text Only | Print | Product List | Glossary On
Versions: 1 2 3 4 5 6 7 8 9 10 11 12 13 14
000
FTUS45 KABQ 182300
TAFAEG
TAF
KAEG 182325Z 1900/1924 18010G20KT P6SM SCT080
     FM190100 12010KT P6SM SCT080
     FM190700 09010KT P6SM SCT025 BKN050
     FM191100 03005KT P6SM SCT015 BKN050
     FM191300 36005KT P6SM SCT025 BKN050
     FM192200 33010KT P6SM VCSH BKN050=

USA.gov is the U.S. government's official web portal to all federal, state and local government web resources and services.